Napanee, Canada
Current Conditions -  °F | °C
As of 7:00 AM on Thursday 23 Oct 2014 (Local Time) from CYGK Reporting Station
Few Clouds Few Clouds  
Wind Chill: 38°   Ceiling: Unl
Heat Index: 45°   Visibility: 15mi
Dew Point: 36°   Wind: 13mph
Humidity: 71%   Direction: 10°N
Pressure: 30.09"   Gusts: 20mph
Location:  44.25°N, 76.95°W
Report Text: CYGK 231100Z 01011G17KT 15SM FEW050 FEW250 07/02 A3009 RMK SC1CI1 SLP191
Loading
Personal Weather Stations






























Interactive Weather Map
Tropical Storm Tracking
New forecast layout! Learn more

10-Day Weather Forecast

Advertisements
Track Severe Weather on mobile